createdAt,value
2017-10-13T00:01:11.093Z,5.07
2017-10-13T00:03:37.395Z,9.17
2017-10-13T00:06:03.784Z,13.63
2017-10-13T00:08:30.104Z,9.53
2017-10-13T00:10:57.122Z,6.83
2017-10-13T00:13:23.459Z,5.83
2017-10-13T00:15:49.731Z,7.97
2017-10-13T00:18:16.070Z,7.73
2017-10-13T00:20:42.339Z,9.37
2017-10-13T00:23:08.919Z,11.47
2017-10-13T00:25:36.197Z,9.70
2017-10-13T00:28:02.473Z,8.73
2017-10-13T00:30:29.501Z,9.23
2017-10-13T00:32:55.845Z,10.27
2017-10-13T00:35:22.153Z,9.80
2017-10-13T00:37:48.442Z,6.57
2017-10-13T00:40:14.833Z,7.20
2017-10-13T00:42:41.881Z,11.53
2017-10-13T00:45:08.974Z,6.63
2017-10-13T00:47:35.278Z,7.40
2017-10-13T00:50:01.559Z,8.93
2017-10-13T00:52:27.858Z,16.40
2017-10-13T00:54:54.213Z,9.80
2017-10-13T00:57:20.557Z,9.40
2017-10-13T00:59:47.592Z,11.90
2017-10-13T01:02:14.205Z,11.33
2017-10-13T01:04:40.498Z,14.10
2017-10-13T01:07:06.829Z,11.87
2017-10-13T01:09:33.155Z,8.70
2017-10-13T01:11:59.478Z,9.90
2017-10-13T01:14:25.811Z,6.77
2017-10-13T01:16:52.141Z,8.00
2017-10-13T01:19:18.513Z,9.70
2017-10-13T01:21:44.847Z,10.40
2017-10-13T01:24:12.226Z,8.20
2017-10-13T01:26:38.576Z,11.50
2017-10-13T01:29:04.910Z,9.57
2017-10-13T01:31:31.263Z,9.90
2017-10-13T01:33:57.613Z,9.50
2017-10-13T01:36:23.963Z,14.90
2017-10-13T01:38:50.382Z,8.47
2017-10-13T01:41:16.731Z,15.60
2017-10-13T01:43:43.798Z,7.63
2017-10-13T01:46:10.540Z,15.50
2017-10-13T01:48:36.915Z,11.97
2017-10-13T01:51:03.234Z,7.10
2017-10-13T01:53:29.608Z,11.10
2017-10-13T01:55:56.686Z,10.30
2017-10-13T01:58:23.021Z,8.33
2017-10-13T02:00:49.353Z,9.60
2017-10-13T02:03:15.665Z,8.30
2017-10-13T02:05:42.000Z,7.17
2017-10-13T02:08:08.317Z,8.70
2017-10-13T02:10:34.637Z,11.77
2017-10-13T02:13:00.983Z,16.77
2017-10-13T02:15:27.313Z,7.87
2017-10-13T02:17:53.619Z,8.80
2017-10-13T02:20:21.091Z,12.50
2017-10-13T02:22:47.406Z,10.80
2017-10-13T02:25:14.494Z,8.70
2017-10-13T02:27:40.808Z,14.70
2017-10-13T02:30:07.107Z,13.73
2017-10-13T02:32:34.123Z,8.83
2017-10-13T02:35:00.459Z,10.80
2017-10-13T02:37:26.804Z,7.57
2017-10-13T02:39:53.921Z,8.50
2017-10-13T02:42:20.263Z,8.37
2017-10-13T02:44:46.593Z,8.80
2017-10-13T02:47:12.899Z,9.33
2017-10-13T02:49:39.224Z,6.33
2017-10-13T02:52:05.584Z,12.23
2017-10-13T02:54:31.940Z,17.93
2017-10-13T02:59:31.202Z,7.90
2017-10-13T03:01:57.511Z,7.57
2017-10-13T03:04:23.787Z,9.80
2017-10-13T03:06:50.061Z,7.00
2017-10-13T03:09:16.325Z,12.80
2017-10-13T03:11:43.403Z,8.30
2017-10-13T03:14:10.460Z,11.10
2017-10-13T03:16:36.847Z,12.50
2017-10-13T03:19:03.124Z,9.37
2017-10-13T03:21:29.394Z,9.63
2017-10-13T03:23:55.691Z,10.87
2017-10-13T03:26:21.991Z,8.93
2017-10-13T03:28:49.062Z,10.20
2017-10-13T03:31:15.366Z,7.20
2017-10-13T03:33:42.496Z,9.17
2017-10-13T03:36:08.855Z,11.50
2017-10-13T03:38:35.222Z,8.57
2017-10-13T03:41:01.586Z,16.63
2017-10-13T03:43:28.606Z,9.30
2017-10-13T03:45:55.014Z,12.33
2017-10-13T03:48:21.343Z,7.60
2017-10-13T03:50:47.666Z,6.70
2017-10-13T03:53:13.990Z,9.00
2017-10-13T03:55:40.404Z,8.60
2017-10-13T03:58:06.753Z,16.43
2017-10-13T04:00:33.456Z,3.70
2017-10-13T04:02:59.761Z,10.33
2017-10-13T04:05:26.075Z,15.93
2017-10-13T04:07:52.683Z,5.67
2017-10-13T04:10:19.723Z,10.10
2017-10-13T04:12:46.108Z,4.57
2017-10-13T04:15:13.203Z,21.17
2017-10-13T04:17:39.552Z,7.53
2017-10-13T04:20:05.828Z,7.97
2017-10-13T04:22:32.606Z,10.43
2017-10-13T04:24:58.880Z,10.90
2017-10-13T04:27:25.158Z,14.33
2017-10-13T04:29:51.496Z,12.30
2017-10-13T04:32:17.778Z,11.60
2017-10-13T04:34:44.891Z,11.23
2017-10-13T04:37:11.244Z,18.30
2017-10-13T04:39:38.614Z,10.67
2017-10-13T04:42:04.938Z,11.87
2017-10-13T04:44:31.974Z,9.63
2017-10-13T04:46:59.112Z,13.60
2017-10-13T04:49:25.464Z,16.77
2017-10-13T04:51:51.765Z,10.43
2017-10-13T04:54:18.093Z,8.77
2017-10-13T04:56:44.796Z,9.13
2017-10-13T04:59:11.069Z,15.63
2017-10-13T05:01:38.057Z,9.33
2017-10-13T05:04:04.372Z,23.30
2017-10-13T05:06:30.654Z,13.47
2017-10-13T05:08:57.023Z,14.47
2017-10-13T05:11:23.310Z,11.10
2017-10-13T05:13:49.620Z,11.50
2017-10-13T05:16:15.930Z,9.93
2017-10-13T05:18:42.219Z,16.60
2017-10-13T05:21:09.271Z,10.87
2017-10-13T05:23:36.378Z,21.93
2017-10-13T05:26:02.694Z,10.50
2017-10-13T05:28:29.016Z,10.47
2017-10-13T05:30:55.304Z,12.80
2017-10-13T05:33:22.565Z,14.27
2017-10-13T05:35:48.858Z,11.80
2017-10-13T05:38:15.158Z,10.77
2017-10-13T05:40:41.470Z,11.97
2017-10-13T05:43:07.776Z,10.13
2017-10-13T05:45:34.121Z,10.27
2017-10-13T05:48:00.434Z,11.20
2017-10-13T05:50:26.744Z,13.00
2017-10-13T05:52:53.782Z,13.27
2017-10-13T05:55:20.087Z,9.10
2017-10-13T05:57:46.392Z,19.60
2017-10-13T06:00:12.753Z,13.40
2017-10-13T06:02:39.096Z,14.00
2017-10-13T06:05:05.449Z,11.10
2017-10-13T06:07:31.855Z,11.77
2017-10-13T06:09:58.922Z,12.37
2017-10-13T06:12:26.002Z,15.23
2017-10-13T06:14:52.371Z,18.60
2017-10-13T06:17:18.778Z,13.63
2017-10-13T06:19:45.092Z,16.00
2017-10-13T06:22:11.398Z,17.60
2017-10-13T06:24:37.779Z,12.60
2017-10-13T06:27:04.102Z,14.30
2017-10-13T06:29:30.406Z,17.27
2017-10-13T06:31:56.690Z,20.20
2017-10-13T06:34:23.823Z,20.00
2017-10-13T06:36:50.857Z,20.30
2017-10-13T06:39:17.226Z,26.97
2017-10-13T06:41:50.730Z,29.83
2017-10-13T06:44:17.043Z,21.30
2017-10-13T06:46:43.364Z,17.23
2017-10-13T06:49:10.422Z,15.80
2017-10-13T06:51:37.527Z,17.40
2017-10-13T06:54:03.860Z,15.50
2017-10-13T06:56:30.185Z,19.53
2017-10-13T06:58:56.486Z,24.80
2017-10-13T07:01:22.825Z,27.33
2017-10-13T07:03:49.157Z,28.43
2017-10-13T07:06:15.474Z,22.60
2017-10-13T07:08:41.828Z,26.73
2017-10-13T07:11:08.176Z,22.70
2017-10-13T07:13:34.491Z,16.63
2017-10-13T07:16:00.842Z,15.43
2017-10-13T07:18:27.979Z,13.13
2017-10-13T07:20:54.288Z,12.97
2017-10-13T07:23:20.626Z,13.80
2017-10-13T07:25:46.944Z,17.30
2017-10-13T07:28:13.341Z,16.00
2017-10-13T07:30:39.731Z,9.60
2017-10-13T07:33:06.017Z,16.43
2017-10-13T07:35:32.328Z,15.27
2017-10-13T07:37:58.617Z,11.93
2017-10-13T07:40:25.711Z,15.70
2017-10-13T07:42:52.021Z,12.50
2017-10-13T07:45:18.331Z,13.37
2017-10-13T07:47:45.363Z,11.40
2017-10-13T07:50:11.959Z,11.77
2017-10-13T07:52:38.228Z,13.43
2017-10-13T07:55:05.227Z,8.93
2017-10-13T07:57:31.589Z,11.57
2017-10-13T07:59:57.858Z,11.90
2017-10-13T08:02:24.194Z,9.27
2017-10-13T08:04:50.547Z,9.10
2017-10-13T08:07:16.857Z,11.73
2017-10-13T08:09:43.108Z,14.50
2017-10-13T08:12:09.670Z,13.03
2017-10-13T08:14:36.712Z,11.30
2017-10-13T08:17:03.036Z,9.83
2017-10-13T08:19:29.346Z,9.63
2017-10-13T08:21:55.712Z,8.30
2017-10-13T08:24:22.552Z,11.43
2017-10-13T08:26:48.860Z,6.60
2017-10-13T08:29:15.280Z,12.93
2017-10-13T08:31:41.553Z,10.23
2017-10-13T08:34:08.645Z,14.27
2017-10-13T08:36:34.976Z,6.70
2017-10-13T08:39:01.239Z,8.07
2017-10-13T08:41:28.275Z,6.87
2017-10-13T08:43:54.578Z,9.93
2017-10-13T08:46:20.865Z,6.97
2017-10-13T08:48:47.148Z,9.33
2017-10-13T08:51:13.452Z,5.70
2017-10-13T08:53:39.731Z,9.73
2017-10-13T08:56:06.494Z,10.77
2017-10-13T08:58:32.819Z,5.30
2017-10-13T09:00:59.154Z,7.70
2017-10-13T09:03:25.472Z,10.03
2017-10-13T09:05:51.806Z,6.77
2017-10-13T09:08:18.179Z,6.53
2017-10-13T09:10:44.519Z,4.87
2017-10-13T09:13:11.152Z,5.07
2017-10-13T09:15:37.481Z,5.40
2017-10-13T09:18:03.865Z,5.27
2017-10-13T09:20:30.190Z,10.90
2017-10-13T09:23:02.489Z,8.53
2017-10-13T09:25:28.830Z,5.50
2017-10-13T09:27:55.148Z,3.57
2017-10-13T09:30:21.514Z,8.90
2017-10-13T09:32:47.833Z,4.53
2017-10-13T09:35:14.457Z,3.77
2017-10-13T09:37:40.753Z,5.63
2017-10-13T09:40:07.087Z,8.30
2017-10-13T09:42:33.425Z,6.33
2017-10-13T09:44:59.738Z,3.67
2017-10-13T09:47:26.141Z,7.50
2017-10-13T09:49:53.174Z,3.87
2017-10-13T09:52:19.837Z,8.87
2017-10-13T09:54:46.110Z,4.20
2017-10-13T09:57:12.472Z,6.23
2017-10-13T09:59:39.519Z,10.83
2017-10-13T10:02:05.830Z,7.37
2017-10-13T10:04:32.507Z,8.20
2017-10-13T10:06:58.815Z,7.20
2017-10-13T10:09:25.847Z,8.47
2017-10-13T10:11:52.157Z,7.77
2017-10-13T10:14:18.471Z,9.40
2017-10-13T10:16:44.770Z,6.77
2017-10-13T10:19:11.072Z,4.83
2017-10-13T10:21:38.111Z,6.50
2017-10-13T10:24:04.416Z,5.50
2017-10-13T10:26:30.710Z,4.50
2017-10-13T10:28:57.263Z,6.83
2017-10-13T10:31:23.621Z,9.63
2017-10-13T10:33:49.951Z,10.57
2017-10-13T10:36:16.286Z,4.70
2017-10-13T10:38:43.419Z,12.07
2017-10-13T10:41:09.694Z,9.50
2017-10-13T10:43:36.287Z,2.70
2017-10-13T10:46:02.576Z,9.03
2017-10-13T10:48:28.894Z,4.87
2017-10-13T10:50:55.233Z,6.33
2017-10-13T10:53:21.570Z,3.67
2017-10-13T10:55:47.911Z,5.10
2017-10-13T10:58:14.175Z,3.30
2017-10-13T11:00:41.226Z,4.50
2017-10-13T11:03:08.306Z,10.80
2017-10-13T11:05:34.668Z,4.80
2017-10-13T11:08:00.990Z,5.07
2017-10-13T11:10:27.280Z,5.50
2017-10-13T11:12:53.560Z,5.53
2017-10-13T11:15:19.866Z,2.40
2017-10-13T11:17:46.192Z,6.10
2017-10-13T11:20:12.503Z,5.33
2017-10-13T11:22:38.749Z,7.00
2017-10-13T11:25:05.189Z,3.20
2017-10-13T11:27:31.520Z,5.43
2017-10-13T11:29:58.015Z,7.27
2017-10-13T11:32:24.331Z,3.00
2017-10-13T11:34:50.695Z,9.10
2017-10-13T11:37:16.949Z,6.47
2017-10-13T11:39:43.269Z,44.77
2017-10-13T11:42:09.538Z,5.17
2017-10-13T11:44:35.901Z,3.27
2017-10-13T11:47:02.514Z,6.03
2017-10-13T11:49:28.842Z,2.90
2017-10-13T11:51:55.171Z,4.13
2017-10-13T11:54:21.494Z,6.10
2017-10-13T11:56:48.547Z,6.60
2017-10-13T11:59:14.844Z,5.00
2017-10-13T12:01:41.193Z,3.03
2017-10-13T12:04:08.180Z,5.37
2017-10-13T12:06:34.802Z,6.23
2017-10-13T12:09:01.084Z,2.10
2017-10-13T12:11:27.370Z,3.40
2017-10-13T12:13:53.661Z,3.83
2017-10-13T12:16:19.959Z,13.03
2017-10-13T12:18:46.380Z,3.53
2017-10-13T12:21:12.653Z,1.73
2017-10-13T12:23:39.013Z,3.90
2017-10-13T12:26:05.338Z,5.13
2017-10-13T12:28:31.650Z,5.27
2017-10-13T12:30:58.035Z,3.37
2017-10-13T12:33:24.351Z,4.27
2017-10-13T12:35:50.666Z,4.73
2017-10-13T12:38:16.973Z,5.97
2017-10-13T12:40:43.350Z,4.97
2017-10-13T12:43:09.671Z,2.60
2017-10-13T12:45:36.044Z,4.13
2017-10-13T12:48:02.355Z,3.93
2017-10-13T12:50:29.420Z,2.57
2017-10-13T12:52:55.759Z,2.50
2017-10-13T12:55:22.138Z,2.63
2017-10-13T12:57:48.490Z,4.30
2017-10-13T13:00:15.533Z,2.90
2017-10-13T13:02:42.635Z,3.57
2017-10-13T13:05:08.914Z,4.53
2017-10-13T13:07:35.946Z,6.03
2017-10-13T13:10:02.321Z,1.87
2017-10-13T13:12:28.634Z,2.17
2017-10-13T13:14:54.935Z,2.20
2017-10-13T13:17:21.998Z,1.77
2017-10-13T13:19:49.041Z,7.83
2017-10-13T13:22:15.327Z,5.07
2017-10-13T13:24:41.626Z,3.23
2017-10-13T13:27:08.680Z,2.30
2017-10-13T13:29:34.980Z,4.23
2017-10-13T13:32:01.303Z,4.00
2017-10-13T13:34:28.415Z,11.23
2017-10-13T13:36:54.731Z,4.57
2017-10-13T13:39:21.054Z,4.53
2017-10-13T13:41:47.751Z,3.60
2017-10-13T13:44:14.061Z,3.93
2017-10-13T13:46:41.109Z,5.10
2017-10-13T13:49:08.244Z,4.40
2017-10-13T13:51:34.562Z,4.27
2017-10-13T13:54:00.892Z,3.60
2017-10-13T13:56:27.215Z,2.07
2017-10-13T13:58:53.808Z,2.30
2017-10-13T14:01:20.114Z,2.50
2017-10-13T14:03:47.170Z,3.83
2017-10-13T14:06:13.476Z,4.63
2017-10-13T14:08:40.551Z,4.23
2017-10-13T14:11:06.868Z,3.13
2017-10-13T14:13:33.302Z,2.90
2017-10-13T14:15:59.642Z,4.20
2017-10-13T14:18:25.932Z,3.90
2017-10-13T14:20:52.964Z,2.73
2017-10-13T14:23:19.301Z,3.53
2017-10-13T14:25:45.623Z,5.30
2017-10-13T14:28:12.706Z,6.83
2017-10-13T14:30:39.120Z,5.50
2017-10-13T14:33:06.194Z,4.80
2017-10-13T14:35:32.522Z,1.90
2017-10-13T14:37:58.835Z,5.47
2017-10-13T14:40:25.924Z,3.47
2017-10-13T14:42:52.216Z,4.90
2017-10-13T14:45:18.618Z,4.43
2017-10-13T14:47:44.974Z,2.93
2017-10-13T14:50:11.662Z,5.43
2017-10-13T14:52:37.946Z,3.13
2017-10-13T14:55:04.284Z,4.53
2017-10-13T14:57:30.585Z,5.60
2017-10-13T14:59:57.638Z,2.10
2017-10-13T15:02:23.985Z,2.30
2017-10-13T15:04:50.271Z,5.43
2017-10-13T15:07:16.570Z,3.73
2017-10-13T15:09:42.923Z,5.10
2017-10-13T15:12:09.286Z,3.63
2017-10-13T15:14:35.589Z,3.77
2017-10-13T15:17:02.642Z,3.23
2017-10-13T15:19:30.270Z,8.97
2017-10-13T15:21:56.632Z,4.30
2017-10-13T15:24:23.786Z,5.67
2017-10-13T15:26:50.898Z,3.43
2017-10-13T15:29:24.182Z,6.67
2017-10-13T15:31:56.476Z,2.53
2017-10-13T15:34:29.052Z,2.00
2017-10-13T15:36:56.138Z,3.50
2017-10-13T15:39:28.512Z,6.43
2017-10-13T15:42:01.047Z,4.43
2017-10-13T15:44:28.394Z,4.93
2017-10-13T15:47:00.612Z,7.43
2017-10-13T15:49:40.007Z,4.80
2017-10-13T15:52:12.454Z,5.20
2017-10-13T15:54:38.765Z,3.97
2017-10-13T15:57:05.090Z,4.50
2017-10-13T15:59:31.382Z,3.77
2017-10-13T16:01:58.438Z,2.90
2017-10-13T16:04:24.781Z,5.30
2017-10-13T16:06:51.097Z,7.23
2017-10-13T16:09:17.467Z,5.40
2017-10-13T16:11:43.816Z,4.67
2017-10-13T16:14:12.294Z,7.50
2017-10-13T16:16:39.886Z,3.57
2017-10-13T16:19:09.125Z,12.90
2017-10-13T16:21:35.929Z,2.87
2017-10-13T16:24:03.191Z,4.10
2017-10-13T16:26:30.584Z,10.63
2017-10-13T16:29:00.840Z,9.00
2017-10-13T16:31:27.417Z,5.67
2017-10-13T16:33:53.733Z,10.13
2017-10-13T16:36:20.037Z,4.60
2017-10-13T16:38:48.238Z,3.10
2017-10-13T16:41:14.791Z,6.63
2017-10-13T16:43:41.286Z,3.60
2017-10-13T16:46:07.696Z,6.20
2017-10-13T16:48:34.023Z,7.73
2017-10-13T16:51:00.674Z,4.93
2017-10-13T16:53:27.000Z,6.33
2017-10-13T16:55:53.382Z,3.63
2017-10-13T16:58:20.340Z,4.57
2017-10-13T17:00:46.745Z,8.60
2017-10-13T17:03:13.109Z,4.70
2017-10-13T17:08:41.545Z,4.73
2017-10-13T17:11:08.597Z,7.80
2017-10-13T17:13:34.895Z,2.60
2017-10-13T17:16:01.986Z,9.87
2017-10-13T17:18:28.313Z,5.03
2017-10-13T17:20:54.611Z,5.13
2017-10-13T17:23:20.919Z,6.50
2017-10-13T17:25:48.023Z,13.10
2017-10-13T17:28:14.753Z,15.77
2017-10-13T17:30:41.130Z,6.10
2017-10-13T17:33:08.279Z,8.33
2017-10-13T17:35:35.349Z,4.83
2017-10-13T17:38:01.706Z,5.63
2017-10-13T17:40:28.077Z,23.43
2017-10-13T17:42:55.167Z,7.03
2017-10-13T17:45:21.570Z,4.37
2017-10-13T17:47:47.916Z,8.57
2017-10-13T17:50:14.317Z,14.23
2017-10-13T17:52:40.695Z,5.17
2017-10-13T17:55:07.039Z,5.20
2017-10-13T17:57:33.394Z,10.13
2017-10-13T17:59:59.774Z,16.80
2017-10-13T18:02:26.211Z,19.30
2017-10-13T18:04:52.595Z,6.97
2017-10-13T18:07:19.051Z,15.03
2017-10-13T18:09:45.558Z,11.67
2017-10-13T18:12:12.781Z,9.20
2017-10-13T18:14:39.232Z,7.73
2017-10-13T18:17:06.420Z,9.93
2017-10-13T18:19:32.913Z,25.37
2017-10-13T18:22:00.093Z,10.30
2017-10-13T18:24:26.547Z,7.33
2017-10-13T18:26:53.081Z,21.03
2017-10-13T18:29:19.786Z,11.50
2017-10-13T18:31:46.465Z,10.20
2017-10-13T18:34:12.891Z,11.87
2017-10-13T18:36:39.397Z,8.30
2017-10-13T18:39:05.842Z,11.40
2017-10-13T18:41:32.287Z,10.80
2017-10-13T18:43:58.680Z,7.93
2017-10-13T18:46:25.151Z,8.07
2017-10-13T18:48:51.664Z,20.90
2017-10-13T18:51:18.108Z,7.80
2017-10-13T18:53:44.590Z,16.30
2017-10-13T18:56:11.787Z,8.20
2017-10-13T18:58:38.246Z,20.57
2017-10-13T19:01:04.620Z,17.60
2017-10-13T19:03:31.199Z,17.17
2017-10-13T19:05:57.642Z,9.30
2017-10-13T19:08:24.039Z,15.50
2017-10-13T19:10:50.456Z,15.20
2017-10-13T19:13:16.854Z,9.63
2017-10-13T19:15:43.408Z,16.77
2017-10-13T19:18:10.627Z,13.47
2017-10-13T19:20:37.080Z,16.33
2017-10-13T19:23:04.307Z,8.60
2017-10-13T19:25:30.704Z,13.70
2017-10-13T19:27:57.101Z,22.40
2017-10-13T19:30:24.332Z,9.90
2017-10-13T19:32:50.719Z,14.93
2017-10-13T19:35:17.139Z,17.33
2017-10-13T19:37:43.546Z,28.73
2017-10-13T19:43:09.948Z,12.73
2017-10-13T19:45:36.347Z,9.47
2017-10-13T19:48:02.756Z,12.50
2017-10-13T19:50:29.908Z,11.20
2017-10-13T19:52:57.015Z,13.13
2017-10-13T19:55:23.315Z,14.33
2017-10-13T19:57:49.765Z,7.73
2017-10-13T20:00:16.193Z,11.53
2017-10-13T20:02:42.583Z,9.03
2017-10-13T20:05:09.724Z,14.67
2017-10-13T20:07:36.839Z,23.53
2017-10-13T20:10:03.298Z,23.37
2017-10-13T20:12:30.408Z,16.83
2017-10-13T20:14:56.865Z,28.53
2017-10-13T20:17:23.333Z,18.23
2017-10-13T20:19:49.803Z,23.90
2017-10-13T20:22:16.290Z,15.30
2017-10-13T20:24:42.864Z,18.47
2017-10-13T20:27:09.515Z,19.20
2017-10-13T20:29:35.955Z,19.97
2017-10-13T20:32:03.453Z,23.73
2017-10-13T20:34:30.105Z,20.90
2017-10-13T20:36:56.534Z,17.00
2017-10-13T20:39:22.921Z,22.60
2017-10-13T20:41:50.067Z,22.93
2017-10-13T20:44:17.194Z,21.95
2017-10-13T20:46:43.557Z,16.43
2017-10-13T20:49:09.980Z,19.02
2017-10-13T20:51:37.119Z,20.48
2017-10-13T20:54:03.476Z,15.70
2017-10-13T20:56:30.614Z,21.03
2017-10-13T20:58:57.731Z,18.63
2017-10-13T21:01:24.079Z,18.50
2017-10-13T21:03:50.402Z,17.03
2017-10-13T21:06:17.076Z,21.00
2017-10-13T21:08:43.452Z,23.77
2017-10-13T21:11:10.055Z,29.35
2017-10-13T21:13:36.368Z,23.50
2017-10-13T21:16:02.784Z,20.40
2017-10-13T21:18:29.147Z,21.15
2017-10-13T21:20:55.459Z,19.83
2017-10-13T21:23:21.774Z,19.42
2017-10-13T21:25:48.112Z,22.65
2017-10-13T21:28:14.452Z,22.05
2017-10-13T21:30:41.067Z,20.88
2017-10-13T21:33:07.406Z,28.37
2017-10-13T21:35:33.763Z,19.00
2017-10-13T21:38:00.038Z,17.62
2017-10-13T21:43:00.205Z,19.90
2017-10-13T21:45:26.584Z,22.10
2017-10-13T21:47:52.899Z,18.27
2017-10-13T21:50:19.211Z,19.42
2017-10-13T21:52:45.513Z,19.55
2017-10-13T21:55:11.851Z,15.07
2017-10-13T21:57:38.172Z,19.45
2017-10-13T22:00:04.476Z,20.42
2017-10-13T22:02:31.544Z,36.05
2017-10-13T22:05:03.863Z,22.90
2017-10-13T22:07:30.184Z,17.23
2017-10-13T22:09:56.475Z,16.15
2017-10-13T22:12:22.821Z,14.77
2017-10-13T22:14:49.123Z,15.82
2017-10-13T22:17:15.494Z,26.33
2017-10-13T22:19:41.844Z,15.77
2017-10-13T22:22:08.148Z,14.48
2017-10-13T22:24:34.489Z,14.10
2017-10-13T22:27:00.762Z,12.73
2017-10-13T22:29:27.104Z,23.48
2017-10-13T22:31:53.429Z,13.00
2017-10-13T22:34:19.663Z,17.83
2017-10-13T22:36:46.006Z,20.05
2017-10-13T22:39:12.278Z,22.00
2017-10-13T22:41:38.594Z,17.05
2017-10-13T22:44:04.962Z,12.07
2017-10-13T22:46:31.273Z,19.15
2017-10-13T22:48:58.356Z,14.87
2017-10-13T22:51:24.665Z,12.05
2017-10-13T22:53:50.951Z,19.33
2017-10-13T22:56:17.230Z,19.08
2017-10-13T22:58:43.567Z,13.73
2017-10-13T23:01:09.879Z,16.83
2017-10-13T23:03:36.265Z,13.50
2017-10-13T23:06:02.565Z,17.35
2017-10-13T23:08:49.552Z,23.00
2017-10-13T23:11:15.905Z,25.70
2017-10-13T23:13:42.201Z,14.82
2017-10-13T23:16:09.247Z,14.25
2017-10-13T23:18:36.302Z,27.65
2017-10-13T23:21:02.603Z,18.58
2017-10-13T23:23:31.011Z,16.48
2017-10-13T23:25:57.362Z,16.87
2017-10-13T23:28:23.632Z,14.87
2017-10-13T23:30:50.125Z,19.23
2017-10-13T23:33:16.425Z,17.77
2017-10-13T23:35:42.778Z,17.55
2017-10-13T23:38:09.031Z,13.95
2017-10-13T23:40:35.300Z,18.08
2017-10-13T23:43:02.328Z,15.77
2017-10-13T23:45:28.675Z,17.10
2017-10-13T23:47:55.712Z,16.25
2017-10-13T23:50:22.735Z,20.48
2017-10-13T23:52:49.337Z,16.40
2017-10-13T23:55:15.733Z,34.85
2017-10-13T23:57:42.831Z,13.62
